.
WxDataArchive / Data Records for 2008-08-20
2008-08-19 August 2008 2008-08-21

Data Records for Wednesday, 20 August 2008

Time	Temp	Chill	HIndex	Humid	Dewpt	 Wind 	HiWind	WindDir	Rain 	Barom 
-----	----	-----	------	-----	-----	------	------	-------	-----	----- 
00:00	63.5	63.5	63.5	80	57.2	1	4	90	0.00	30.094 
00:05	63.4	63.4	63.4	80	57.1	1	3	90	0.00	30.094 
00:10	63.4	63.4	63.4	80	57.1	1	3	90	0.00	30.097 
00:15	63.2	63.2	63.2	81	57.3	1	4	90	0.00	30.095 
00:20	63.1	63.1	63.1	81	57.2	1	3	90	0.00	30.095 
00:25	62.9	62.9	62.9	81	57.0	1	4	68	0.00	30.097 
00:30	62.7	62.7	62.7	82	57.1	1	3	90	0.00	30.098 
00:35	62.6	62.6	62.6	82	57.0	1	2	90	0.00	30.099 
00:40	62.4	62.4	62.4	82	56.8	0	2	90	0.00	30.100 
00:45	62.4	62.4	62.4	82	56.8	0	4	90	0.00	30.099 
00:50	62.3	62.3	62.3	83	57.1	1	4	90	0.00	30.100 
00:55	62.1	62.1	62.1	83	56.9	1	4	90	0.00	30.099 
01:00	62.1	62.1	62.1	83	56.9	1	3	90	0.00	30.097 
01:05	62.0	62.0	62.0	83	56.8	1	3	90	0.00	30.101 
01:10	61.8	61.8	61.8	83	56.6	1	3	90	0.00	30.102 
01:15	61.8	61.8	61.8	83	56.6	0	2	90	0.00	30.100 
01:20	61.6	61.6	61.6	84	56.7	0	2	90	0.00	30.100 
01:25	61.5	61.5	61.5	84	56.6	1	2	90	0.00	30.099 
01:30	61.5	61.5	61.5	84	56.6	1	4	90	0.00	30.096 
01:35	61.3	61.3	61.3	84	56.4	1	4	112	0.00	30.095 
01:40	61.2	61.2	61.2	85	56.6	1	3	112	0.00	30.096 
01:45	61.0	61.0	61.0	85	56.5	1	2	112	0.00	30.096 
01:50	61.0	61.0	61.0	85	56.5	0	2	112	0.00	30.097 
01:55	60.9	60.9	60.9	85	56.4	0	2	112	0.00	30.098 
02:00	60.7	60.7	60.7	85	56.2	0	1	112	0.00	30.099 
02:05	60.5	60.5	60.5	86	56.3	0	2	112	0.00	30.098 
02:10	60.5	60.5	60.5	86	56.3	0	2	112	0.00	30.100 
02:15	60.4	60.4	60.4	86	56.2	0	1	112	0.00	30.101 
02:20	60.2	60.2	60.2	86	56.0	0	1	112	0.00	30.100 
02:25	60.2	60.2	60.2	87	56.3	0	2	112	0.00	30.099 
02:30	60.1	60.1	60.1	87	56.2	0	1	112	0.00	30.101 
02:35	59.9	59.9	59.9	87	56.0	0	1	112	0.00	30.101 
02:40	59.9	59.9	59.9	87	56.0	0	2	112	0.00	30.100 
02:45	59.9	59.9	59.9	87	56.0	0	2	112	0.00	30.100 
02:50	59.8	59.8	59.8	87	55.9	0	1	112	0.00	30.103 
02:55	59.8	59.8	59.8	87	55.9	0	1	112	0.00	30.103 
03:00	59.6	59.6	59.6	87	55.7	0	1	112	0.00	30.104 
03:05	59.6	59.6	59.6	87	55.7	0	1	112	0.00	30.104 
03:10	59.5	59.5	59.5	87	55.6	0	1	112	0.00	30.104 
03:15	59.5	59.5	59.5	87	55.6	0	2	112	0.00	30.105 
03:20	59.5	59.5	59.5	87	55.6	0	1	112	0.00	30.106 
03:25	59.3	59.3	59.3	87	55.4	0	0	---	0.00	30.107 
03:30	59.3	59.3	59.3	87	55.4	0	1	112	0.00	30.107 
03:35	59.2	59.2	59.2	87	55.3	0	1	112	0.00	30.108 
03:40	59.2	59.2	59.2	87	55.3	0	1	112	0.00	30.107 
03:45	59.2	59.2	59.2	87	55.3	0	2	112	0.00	30.107 
03:50	59.2	59.2	59.2	87	55.3	0	2	112	0.00	30.105 
03:55	59.2	59.2	59.2	87	55.3	1	3	112	0.00	30.105 
04:00	59.0	59.0	59.0	87	55.1	0	2	112	0.00	30.106 
04:05	59.0	59.0	59.0	87	55.1	0	2	112	0.00	30.110 
04:10	59.0	59.0	59.0	87	55.1	0	2	112	0.00	30.110 
04:15	58.9	58.9	58.9	87	55.0	0	2	112	0.00	30.111 
04:20	58.9	58.9	58.9	87	55.0	1	2	112	0.00	30.112 
04:25	58.9	58.9	58.9	87	55.0	0	2	112	0.00	30.111 
04:30	58.7	58.7	58.7	86	54.5	1	2	112	0.00	30.110 
04:35	58.7	58.7	58.7	86	54.5	1	3	112	0.00	30.106 
04:40	58.7	58.7	58.7	86	54.5	1	3	112	0.00	30.104 
04:45	58.6	58.6	58.6	86	54.4	1	3	112	0.00	30.103 
04:50	58.6	58.6	58.6	87	54.7	0	3	112	0.00	30.104 
04:55	58.6	58.6	58.6	87	54.7	0	1	112	0.00	30.103 
05:00	58.4	58.4	58.4	87	54.5	0	1	112	0.00	30.104 
05:05	58.3	58.3	58.3	88	54.8	0	2	112	0.00	30.108 
05:10	58.1	58.1	58.1	88	54.6	0	2	112	0.00	30.111 
05:15	58.1	58.1	58.1	88	54.6	0	2	112	0.00	30.110 
05:20	58.0	58.0	58.0	88	54.5	0	1	112	0.00	30.110 
05:25	57.8	57.8	57.8	88	54.3	0	2	112	0.00	30.112 
05:30	57.8	57.8	57.8	88	54.3	0	2	112	0.00	30.114 
05:35	57.6	57.6	57.6	88	54.1	1	2	112	0.00	30.112 
05:40	57.6	57.6	57.6	89	54.4	0	2	112	0.00	30.114 
05:45	57.5	57.5	57.5	89	54.3	0	2	112	0.00	30.115 
05:50	57.5	57.5	57.5	89	54.3	0	2	112	0.00	30.116 
05:55	57.5	57.5	57.5	89	54.3	0	1	112	0.00	30.116 
06:00	57.3	57.3	57.3	89	54.1	0	2	112	0.00	30.118 
06:05	57.3	57.3	57.3	89	54.1	1	3	112	0.00	30.123 
06:10	57.2	57.2	57.2	89	54.0	0	2	112	0.00	30.123 
06:15	57.2	57.2	57.2	89	54.0	0	2	112	0.00	30.126 
06:20	57.2	57.2	57.2	89	54.0	1	3	112	0.00	30.131 
06:25	57.2	57.2	57.2	89	54.0	0	1	112	0.00	30.132 
06:30	57.3	57.3	57.3	89	54.1	0	3	112	0.00	30.133 
06:35	57.3	57.3	57.3	89	54.1	1	2	112	0.00	30.134 
06:40	57.6	57.6	57.6	89	54.4	1	3	112	0.00	30.134 
06:45	58.1	58.1	58.1	88	54.6	1	4	112	0.00	30.135 
06:50	58.3	58.3	58.3	87	54.4	1	3	112	0.00	30.135 
06:55	58.6	58.6	58.6	86	54.4	0	3	135	0.00	30.135 
07:00	59.0	59.0	59.0	85	54.5	1	3	90	0.00	30.135 
07:05	59.3	59.3	59.3	84	54.5	2	4	90	0.00	30.137 
07:10	59.6	59.6	59.6	81	53.8	2	4	90	0.00	30.137 
07:15	60.2	60.2	60.2	80	54.0	1	4	112	0.00	30.138 
07:20	60.7	60.7	60.7	79	54.1	2	4	112	0.00	30.137 
07:25	61.3	61.3	61.3	77	54.0	1	4	112	0.00	30.136 
07:30	61.8	61.8	61.8	76	54.1	2	5	90	0.00	30.138 
07:35	62.0	62.0	62.0	74	53.6	2	5	90	0.00	30.136 
07:40	62.0	62.0	62.0	74	53.6	3	6	90	0.00	30.137 
07:45	62.3	62.3	62.3	72	53.2	2	6	90	0.00	30.143 
07:50	62.6	62.6	62.6	72	53.4	2	5	90	0.00	30.144 
07:55	63.1	63.1	63.1	72	53.9	1	4	112	0.00	30.144 
08:00	63.2	63.2	63.2	71	53.6	1	4	90	0.00	30.147 
08:05	63.5	63.5	63.5	70	53.5	2	4	68	0.00	30.150 
08:10	63.4	63.4	63.4	70	53.4	2	6	90	0.00	30.151 
08:15	63.4	63.4	63.4	70	53.4	3	7	90	0.00	30.150 
08:20	63.7	63.7	63.7	72	54.5	2	6	90	0.00	30.146 
08:25	64.0	64.0	64.0	71	54.4	2	7	90	0.00	30.144 
08:30	64.2	64.2	64.2	71	54.6	3	9	90	0.00	30.139 
08:35	64.7	64.7	64.7	71	55.1	2	5	112	0.00	30.141 
08:40	65.3	65.3	65.3	69	54.9	2	5	90	0.00	30.146 
08:45	65.8	65.8	65.8	67	54.5	2	7	90	0.00	30.146 
08:50	66.3	66.3	66.3	68	55.4	3	5	90	0.00	30.145 
08:55	66.6	66.6	66.6	67	55.3	2	8	112	0.00	30.146 
09:00	67.1	67.1	67.1	66	55.4	3	6	90	0.00	30.146 
09:05	67.3	67.3	67.3	62	53.8	3	7	90	0.00	30.148 
09:10	67.6	67.6	67.6	63	54.5	3	7	90	0.00	30.147 
09:15	68.1	68.1	68.1	60	53.7	4	9	90	0.00	30.146 
09:20	68.4	68.4	68.4	60	54.0	3	7	90	0.00	30.147 
09:25	68.9	68.9	68.9	58	53.5	3	6	112	0.00	30.147 
09:30	69.3	69.3	69.3	57	53.4	3	9	90	0.00	30.148 
09:35	69.6	69.6	69.6	57	53.7	2	5	112	0.00	30.146 
09:40	70.1	70.1	70.1	57	54.1	2	5	90	0.00	30.143 
09:45	70.4	70.4	70.4	57	54.4	2	7	90	0.00	30.144 
09:50	70.8	70.8	70.8	54	53.3	2	5	90	0.00	30.145 
09:55	70.8	70.8	70.8	56	54.3	3	6	90	0.00	30.144 
10:00	71.1	71.1	71.1	55	54.1	2	5	90	0.00	30.145 
10:05	71.8	71.8	71.8	52	53.2	2	5	112	0.00	30.145 
10:10	72.1	72.1	72.1	51	53.0	3	7	90	0.00	30.146 
10:15	72.7	72.7	72.7	51	53.5	2	5	90	0.00	30.145 
10:20	73.0	73.0	73.0	46	51.0	2	6	90	0.00	30.146 
10:25	73.2	73.2	73.2	47	51.7	3	7	90	0.00	30.145 
10:30	73.2	73.2	73.2	47	51.7	3	5	90	0.00	30.144 
10:35	73.2	73.2	73.2	45	50.6	3	6	90	0.00	30.144 
10:40	73.2	73.2	73.2	45	50.6	3	6	90	0.00	30.145 
10:45	73.2	73.2	73.2	47	51.7	3	6	90	0.00	30.145 
10:50	73.7	73.7	73.7	44	50.4	3	6	112	0.00	30.145 
10:55	74.2	74.2	74.2	44	50.9	3	7	90	0.00	30.145 
11:00	74.6	74.6	74.6	43	50.6	3	7	112	0.00	30.142 
11:05	75.1	75.1	77.6	42	50.4	1	6	90	0.00	30.143 
11:10	75.8	75.8	77.8	41	50.4	2	6	112	0.00	30.140 
11:15	76.3	76.3	78.0	41	50.8	2	5	135	0.00	30.139 
11:20	76.3	76.3	78.0	41	50.8	3	7	112	0.00	30.132 
11:25	76.5	76.5	78.0	40	50.4	2	6	112	0.00	30.130 
11:30	76.5	76.5	77.9	38	49.0	3	6	90	0.00	30.133 
11:35	76.7	76.7	78.1	39	49.9	1	5	90	0.00	30.131 
11:40	76.7	76.7	78.1	39	49.9	3	7	90	0.00	30.129 
11:45	76.8	76.8	78.1	39	49.9	2	6	112	0.00	30.128 
11:50	77.2	77.2	78.3	39	50.3	2	6	90	0.00	30.128 
11:55	77.2	77.2	78.1	35	47.4	3	7	90	0.00	30.128 
12:00	77.2	77.2	78.1	35	47.4	3	5	90	0.00	30.126 
12:05	77.2	77.2	78.1	36	48.2	3	5	90	0.00	30.127 
12:10	77.7	77.7	78.4	37	49.3	2	4	112	0.00	30.124 
12:15	78.5	78.5	78.7	35	48.5	1	5	90	0.00	30.121 
12:20	78.5	78.5	78.7	35	48.5	3	7	90	0.00	30.123 
12:25	78.6	78.6	78.8	36	49.4	2	5	112	0.00	30.120 
12:30	78.8	78.8	78.7	33	47.2	3	7	90	0.00	30.119 
12:35	78.6	78.6	78.7	35	48.6	2	5	90	0.00	30.117 
12:40	78.8	78.8	79.0	37	50.3	2	5	112	0.00	30.115 
12:45	78.8	78.8	78.8	35	48.8	2	6	112	0.00	30.115 
12:50	78.8	78.8	79.0	37	50.3	2	5	90	0.00	30.115 
12:55	78.8	78.8	78.9	36	49.6	2	6	90	0.00	30.116 
13:00	79.0	79.0	79.0	36	49.7	2	5	90	0.00	30.114 
13:05	79.4	79.4	79.4	38	51.6	2	5	90	0.00	30.113 
13:10	79.8	79.8	79.5	36	50.4	2	4	112	0.00	30.113 
13:15	79.9	79.9	79.6	36	50.5	2	4	90	0.00	30.112 
13:20	80.1	80.1	79.5	34	49.2	2	6	112	0.00	30.112 
13:25	80.1	80.1	79.5	33	48.4	3	5	90	0.00	30.111 
13:30	80.3	80.3	79.5	32	47.7	2	7	112	0.00	30.110 
13:35	80.3	80.3	79.7	34	49.3	2	5	112	0.00	30.107 
13:40	80.9	80.9	80.1	35	50.7	2	4	90	0.00	30.103 
13:45	81.2	81.2	79.9	30	46.8	2	5	90	0.00	30.101 
13:50	81.2	81.2	80.1	32	48.5	2	6	90	0.00	30.098 
13:55	81.2	81.2	80.1	32	48.5	2	5	90	0.00	30.098 
14:00	81.1	81.1	79.9	31	47.6	3	10	90	0.00	30.098 
14:05	81.1	81.1	79.7	27	43.9	3	6	112	0.00	30.098 
14:10	81.4	81.4	79.9	28	45.1	3	9	90	0.00	30.098 
14:15	81.6	81.6	80.2	30	47.1	2	5	90	0.00	30.092 
14:20	81.6	81.6	80.1	29	46.2	3	9	90	0.00	30.092 
14:25	81.2	81.2	79.7	27	44.0	3	6	90	0.00	30.090 
14:30	81.4	81.4	80.1	31	47.8	2	4	112	0.00	30.085 
14:35	81.8	81.8	80.2	28	45.5	2	6	112	0.00	30.082 
14:40	81.8	81.8	80.2	28	45.5	2	5	112	0.00	30.082 
14:45	82.2	82.2	80.6	30	47.7	1	5	112	0.00	30.081 
14:50	82.4	82.4	80.5	27	45.0	2	6	90	0.00	30.081 
14:55	82.8	82.8	81.0	29	47.3	1	3	90	0.00	30.078 
15:00	83.0	83.0	81.0	28	46.5	2	7	90	0.00	30.078 
15:05	82.8	82.8	80.9	28	46.3	2	9	90	0.00	30.079 
15:10	82.4	82.4	80.7	29	46.9	2	7	90	0.00	30.081 
15:15	82.4	82.4	80.5	27	45.0	2	7	90	0.00	30.082 
15:20	82.4	82.4	80.4	25	43.0	3	6	112	0.00	30.082 
15:25	82.2	82.2	80.3	25	42.9	2	5	90	0.00	30.083 
15:30	82.4	82.4	80.3	24	42.0	3	6	112	0.00	30.082 
15:35	82.4	82.4	80.5	26	44.0	2	4	90	0.00	30.082 
15:40	82.4	82.4	80.5	26	44.0	2	7	90	0.00	30.077 
15:45	82.4	82.4	80.5	27	45.0	3	6	112	0.00	30.076 
15:50	82.4	82.4	80.5	27	45.0	3	6	90	0.00	30.075 
15:55	82.2	82.2	80.5	28	45.8	3	7	90	0.00	30.073 
16:00	82.4	82.4	80.6	28	46.0	2	6	90	0.00	30.073 
16:05	82.4	82.4	80.6	28	46.0	2	9	90	0.00	30.070 
16:10	82.4	82.4	80.6	28	46.0	2	5	90	0.00	30.072 
16:15	82.4	82.4	80.5	27	45.0	2	5	90	0.00	30.072 
16:20	82.4	82.4	80.6	28	46.0	2	5	90	0.00	30.072 
16:25	82.4	82.4	80.5	27	45.0	2	5	112	0.00	30.072 
16:30	82.6	82.6	80.7	27	45.2	2	6	90	0.00	30.069 
16:35	82.8	82.8	80.8	27	45.4	2	4	90	0.00	30.069 
16:40	82.8	82.8	80.8	27	45.4	2	5	112	0.00	30.067 
16:45	82.4	82.4	80.6	28	46.0	3	7	90	0.00	30.068 
16:50	82.2	82.2	80.5	28	45.8	2	4	90	0.00	30.068 
16:55	82.2	82.2	80.4	27	44.9	2	6	68	0.00	30.068 
17:00	82.0	82.0	80.3	28	45.7	2	6	90	0.00	30.069 
17:05	81.6	81.6	80.0	27	44.4	2	5	90	0.00	30.070 
17:10	81.4	81.4	79.9	28	45.1	3	6	90	0.00	30.069 
17:15	81.2	81.2	79.8	28	45.0	2	6	90	0.00	30.069 
17:20	81.1	81.1	79.7	27	43.9	3	5	112	0.00	30.068 
17:25	80.9	80.9	79.5	27	43.8	3	10	90	0.00	30.069 
17:30	80.7	80.7	79.5	29	45.5	2	9	90	0.00	30.068 
17:35	80.5	80.5	79.5	30	46.2	1	4	90	0.00	30.068 
17:40	80.5	80.5	79.4	28	44.4	2	5	90	0.00	30.068 
17:45	80.1	80.1	79.1	28	44.0	1	4	90	0.00	30.069 
17:50	80.1	80.1	79.2	29	44.9	2	7	90	0.00	30.069 
17:55	79.8	79.8	79.0	29	44.7	2	4	90	0.00	30.070 
18:00	79.6	79.6	78.9	29	44.5	2	6	90	0.00	30.070 
18:05	79.2	79.2	78.7	29	44.2	2	6	90	0.00	30.068 
18:10	78.8	78.8	78.6	31	45.6	1	4	68	0.00	30.066 
18:15	78.6	78.6	78.4	29	43.7	2	6	90	0.00	30.067 
18:20	78.5	78.5	78.4	30	44.5	2	4	90	0.00	30.067 
18:25	78.3	78.3	78.2	29	43.4	2	5	90	0.00	30.069 
18:30	78.1	78.1	78.2	30	44.1	1	4	90	0.00	30.067 
18:35	77.9	77.9	78.1	30	43.9	1	5	90	0.00	30.069 
18:40	77.7	77.7	78.0	31	44.6	1	2	90	0.00	30.069 
18:45	77.4	77.4	77.9	31	44.4	1	4	90	0.00	30.069 
18:50	77.2	77.2	78.1	35	47.4	1	2	68	0.00	30.068 
18:55	76.8	76.8	78.0	37	48.5	1	4	90	0.00	30.068 
19:00	76.5	76.5	78.0	40	50.4	2	5	90	0.00	30.068 
19:05	75.8	75.8	77.8	41	50.4	3	5	112	0.00	30.067 
19:10	75.4	75.4	77.7	42	50.7	2	5	90	0.00	30.067 
19:15	74.9	74.9	74.9	43	50.9	1	4	90	0.00	30.067 
19:20	74.4	74.4	74.4	44	51.0	1	4	90	0.00	30.066 
19:25	73.9	73.9	73.9	44	50.6	1	3	112	0.00	30.067 
19:30	73.3	73.3	73.3	44	50.1	1	3	112	0.00	30.066 
19:35	73.0	73.0	73.0	44	49.8	1	5	112	0.00	30.065 
19:40	72.7	72.7	72.7	45	50.1	1	3	112	0.00	30.066 
19:45	72.3	72.3	72.3	44	49.2	1	4	112	0.00	30.069 
19:50	72.0	72.0	72.0	45	49.5	1	4	90	0.00	30.070 
19:55	71.6	71.6	71.6	46	49.7	1	2	90	0.00	30.070 
20:00	71.1	71.1	71.1	47	49.8	1	2	90	0.00	30.071 
20:05	70.8	70.8	70.8	47	49.6	0	2	90	0.00	30.069 
20:10	70.3	70.3	70.3	48	49.7	0	2	90	0.00	30.070 
20:15	69.9	69.9	69.9	48	49.3	1	4	90	0.00	30.070 
20:20	69.6	69.6	69.6	48	49.0	0	2	112	0.00	30.073 
20:25	69.3	69.3	69.3	49	49.3	0	2	112	0.00	30.075 
20:30	68.9	68.9	68.9	48	48.4	1	3	112	0.00	30.076 
20:35	68.6	68.6	68.6	48	48.1	1	4	112	0.00	30.077 
20:40	68.3	68.3	68.3	49	48.4	1	4	68	0.00	30.080 
20:45	68.1	68.1	68.1	49	48.2	2	4	90	0.00	30.082 
20:50	67.8	67.8	67.8	49	47.9	2	6	112	0.00	30.084 
20:55	67.6	67.6	67.6	50	48.3	1	4	112	0.00	30.084 
21:00	67.3	67.3	67.3	50	48.0	2	5	90	0.00	30.084 
21:05	66.9	66.9	66.9	51	48.2	1	4	112	0.00	30.082 
21:10	66.6	66.6	66.6	52	48.4	1	3	112	0.00	30.083 
21:15	66.3	66.3	66.3	53	48.6	1	2	90	0.00	30.085 
21:20	66.0	66.0	66.0	54	48.9	1	4	90	0.00	30.085 
21:25	65.6	65.6	65.6	55	49.0	0	2	90	0.00	30.086 
21:30	65.5	65.5	65.5	56	49.4	0	2	90	0.00	30.088 
21:35	65.2	65.2	65.2	56	49.1	1	2	90	0.00	30.091 
21:40	65.0	65.0	65.0	57	49.4	0	2	90	0.00	30.093 
21:45	64.8	64.8	64.8	58	49.7	0	2	90	0.00	30.092 
21:50	64.5	64.5	64.5	58	49.4	1	2	90	0.00	30.095 
21:55	64.3	64.3	64.3	59	49.7	1	4	112	0.00	30.092 
22:00	64.2	64.2	64.2	59	49.6	1	3	112	0.00	30.094 
22:05	64.0	64.0	64.0	60	49.8	1	4	112	0.00	30.091 
22:10	63.9	63.9	63.9	61	50.2	0	2	112	0.00	30.092 
22:15	63.7	63.7	63.7	61	50.0	1	3	90	0.00	30.094 
22:20	63.7	63.7	63.7	62	50.4	1	5	90	0.00	30.093 
22:25	63.5	63.5	63.5	62	50.2	1	3	90	0.00	30.092 
22:30	63.4	63.4	63.4	62	50.1	0	3	90	0.00	30.093 
22:35	63.1	63.1	63.1	63	50.3	0	2	90	0.00	30.093 
22:40	62.9	62.9	62.9	64	50.5	0	1	90	0.00	30.095 
22:45	62.7	62.7	62.7	64	50.3	0	3	90	0.00	30.094 
22:50	62.6	62.6	62.6	65	50.7	0	1	112	0.00	30.095 
22:55	62.4	62.4	62.4	65	50.5	0	1	112	0.00	30.097 
23:00	62.3	62.3	62.3	66	50.8	0	2	112	0.00	30.095 
23:05	62.1	62.1	62.1	66	50.6	0	3	112	0.00	30.092 
23:10	62.0	62.0	62.0	67	50.9	0	1	112	0.00	30.090 
23:15	61.8	61.8	61.8	67	50.7	0	1	112	0.00	30.089 
23:20	61.6	61.6	61.6	68	50.9	0	2	112	0.00	30.090 
23:25	61.6	61.6	61.6	68	50.9	0	2	112	0.00	30.086 
23:30	61.5	61.5	61.5	69	51.2	0	2	112	0.00	30.084 
23:35	61.3	61.3	61.3	69	51.0	0	2	112	0.00	30.085 
23:40	61.0	61.0	61.0	69	50.8	0	2	112	0.00	30.087 
23:45	60.9	60.9	60.9	69	50.7	0	2	112	0.00	30.087 
23:50	60.7	60.7	60.7	70	50.9	0	1	112	0.00	30.088 
23:55	60.4	60.4	60.4	70	50.6	0	1	112	0.00	30.089 

CoCoRaHS
IN-AL-39
A2 Web Hosting
Creative Commons License
GoDaddy
Look for:

loaded 2017-10-17 22:27:31 • last modified 2010-11-18 10:43:29
Privacy PolicyDisclaimer
• wx.awcolley.com is powered by PmWiki v.2002016 •
• all content (unless otherwise noted) © 2017 A W Colley